Weather at Cataratas Del Iguazú International Airport

Public forecast

Using degrees Celsius for public forecast. Weather courtesy of forecast.io.

Current aviation weather report (METAR) for Cataratas Del Iguazú International Airport

2024/05/18 09:00 (retrieved 47 minutes ago)

SARI 180900Z VRB02KT 0500 R31/1500U BCFG OVC002 14/14 Q1016

Aviation forecast (TAF) for Cataratas Del Iguazú International Airport

2024/05/18 06:04 (retrieved 4 hours ago)

TAF SARI 180500Z 1806/1906 VRB03KT 0500 FG OVC002 TX20/1819Z TN13/1810Z BECMG 1812/1813 16005KT 3000 -TSRA BKN005 OVC040 FEW050CB